Gemmell, Minnesota
Current Conditions -  °F | °C
As of 8:31 AM on Friday 28 Nov 2014 (Local Time) from KVWU Reporting Station
Light Snow Light Snow  
Wind Chill: -13°   Ceiling: 2500
Heat Index: -13°   Visibility: 7mi
Dew Point: -14°   Wind: 0mph
Humidity: 92%   Direction: NA
Pressure: 29.97"   Gusts: NA
Location:  47.9892°N, 94.2138°W
Report Text: KVWU 281431Z AUTO 00000KT 7SM -SN OVC025 M13/M14 A2997 RMK AO2
Loading
Personal Weather Stations






























Interactive Weather Map New forecast layout! Learn more

10-Day Weather Forecast

Advertisements
Track Severe Weather on mobile